Time;durP1;ratioP1;P1;durP2;ratioP2;P2;SDS_P1;SDS_P2;PMS_P1;PMS_P2;Temp;Humidity;BMP_temperature;BMP_pressure;BME280_temperature;BME280_humidity;BME280_pressure;Samples;Min_cycle;Max_cycle;Signal;HPM_P1;HPM_P2
2022/11/30 00:00:37;;;;;;;;;;;11.20;72.30;;;;;;4987355;28;20386;-49
2022/11/30 00:03:07;;;;;;;;;;;11.20;72.40;;;;;;4993869;28;19926;-49
2022/11/30 00:05:36;;;;;;;;;;;11.30;72.50;;;;;;4985757;28;20435;-49
2022/11/30 00:08:09;;;;;;;;;;;11.20;72.40;;;;;;4991887;28;19978;-50
2022/11/30 00:10:41;;;;;;;;;;;11.20;72.40;;;;;;4986259;28;19937;-49
2022/11/30 00:13:08;;;;;;;;;;;11.20;72.50;;;;;;4986266;28;19933;-49
2022/11/30 00:15:37;;;;;;;;;;;11.20;72.50;;;;;;4979792;28;20013;-49
2022/11/30 00:18:08;;;;;;;;;;;11.20;72.40;;;;;;4989909;28;20021;-50
2022/11/30 00:20:36;;;;;;;;;;;11.20;72.50;;;;;;4988815;28;19936;-50
2022/11/30 00:23:08;;;;;;;;;;;11.20;72.40;;;;;;4994067;28;19969;-51
2022/11/30 00:25:35;;;;;;;;;;;11.20;72.40;;;;;;4974029;28;19937;-49
2022/11/30 00:28:02;;;;;;;;;;;11.20;72.50;;;;;;4977794;28;19932;-50
2022/11/30 00:30:34;;;;;;;;;;;11.20;72.50;;;;;;4991256;28;19937;-49
2022/11/30 00:33:01;;;;;;;;;;;11.20;72.50;;;;;;4986906;28;19985;-50
2022/11/30 00:35:27;;;;;;;;;;;11.20;72.50;;;;;;4974066;28;19933;-52
2022/11/30 00:37:56;;;;;;;;;;;11.20;73.20;;;;;;4981679;28;20036;-52
2022/11/30 00:40:23;;;;;;;;;;;11.20;72.50;;;;;;4986464;28;20301;-49
2022/11/30 00:42:53;;;;;;;;;;;11.20;72.60;;;;;;4979982;28;19926;-50
2022/11/30 00:45:19;;;;;;;;;;;11.20;72.70;;;;;;4973993;28;19926;-52
2022/11/30 00:47:46;;;;;;;;;;;11.30;72.80;;;;;;4979772;28;19926;-50
2022/11/30 00:50:13;;;;;;;;;;;11.20;72.80;;;;;;4992149;28;19929;-53
2022/11/30 00:52:39;;;;;;;;;;;11.30;72.80;;;;;;4985782;28;19938;-52
2022/11/30 00:55:06;;;;;;;;;;;11.30;72.90;;;;;;4994033;28;19932;-49
2022/11/30 00:57:32;;;;;;;;;;;11.30;72.80;;;;;;4985568;28;20298;-53
2022/11/30 01:00:00;;;;;;;;;;;11.30;72.80;;;;;;4993740;28;19933;-51
2022/11/30 01:02:27;;;;;;;;;;;11.30;72.80;;;;;;4974762;28;19936;-49
2022/11/30 01:04:55;;;;;;;;;;;11.30;72.80;;;;;;4979438;28;20499;-52
2022/11/30 01:07:22;;;;;;;;;;;11.30;72.80;;;;;;4993101;28;19926;-49
2022/11/30 01:09:51;;;;;;;;;;;11.30;72.80;;;;;;4979320;28;19926;-49
2022/11/30 01:12:20;;;;;;;;;;;11.30;72.80;;;;;;4975164;28;19926;-50
2022/11/30 01:14:46;;;;;;;;;;;11.40;72.90;;;;;;4989006;28;19926;-50
2022/11/30 01:17:16;;;;;;;;;;;11.40;72.90;;;;;;4990462;28;20349;-48
2022/11/30 01:19:42;;;;;;;;;;;11.40;72.90;;;;;;4983819;28;19926;-53
2022/11/30 01:22:13;;;;;;;;;;;11.40;72.90;;;;;;4990882;28;19934;-49
2022/11/30 01:24:40;;;;;;;;;;;11.40;72.90;;;;;;4988175;28;19948;-52
2022/11/30 01:27:06;;;;;;;;;;;11.40;72.90;;;;;;4985286;28;19926;-47
2022/11/30 01:29:33;;;;;;;;;;;11.40;72.90;;;;;;4973562;28;19926;-52
2022/11/30 01:31:59;;;;;;;;;;;11.40;72.90;;;;;;4980817;28;19926;-51
2022/11/30 01:34:28;;;;;;;;;;;11.40;72.90;;;;;;4985642;28;19926;-52
2022/11/30 01:36:54;;;;;;;;;;;11.40;72.90;;;;;;4987519;28;19926;-53
2022/11/30 01:39:21;;;;;;;;;;;11.40;72.90;;;;;;4982660;28;19930;-50
2022/11/30 01:41:52;;;;;;;;;;;11.50;72.90;;;;;;4973942;28;19989;-48
2022/11/30 01:44:25;;;;;;;;;;;11.40;72.80;;;;;;4987457;28;19945;-49
2022/11/30 01:46:54;;;;;;;;;;;11.40;72.80;;;;;;4986410;28;19930;-49
2022/11/30 01:49:32;;;;;;;;;;;11.40;72.80;;;;;;4974334;28;20415;-52
2022/11/30 01:52:04;;;;;;;;;;;11.50;72.80;;;;;;4987810;28;19930;-50
2022/11/30 01:54:35;;;;;;;;;;;11.50;72.80;;;;;;4988570;28;19930;-49
2022/11/30 01:57:09;;;;;;;;;;;11.50;72.80;;;;;;4984701;28;19960;-49
2022/11/30 01:59:36;;;;;;;;;;;11.50;72.80;;;;;;5019191;23;19925;-53
2022/11/30 02:02:04;;;;;;;;;;;11.50;72.80;;;;;;5004672;28;20296;-55
2022/11/30 02:04:33;;;;;;;;;;;11.40;72.70;;;;;;5011165;28;19926;-51
2022/11/30 02:07:01;;;;;;;;;;;11.40;72.70;;;;;;5006680;28;19929;-54
2022/11/30 02:09:28;;;;;;;;;;;11.40;72.80;;;;;;5025042;28;20354;-52
2022/11/30 02:11:57;;;;;;;;;;;11.40;72.80;;;;;;5019790;28;19979;-52
2022/11/30 02:14:37;;;;;;;;;;;11.40;72.70;;;;;;5028382;28;19931;-51
2022/11/30 02:17:09;;;;;;;;;;;11.40;72.70;;;;;;5016690;28;19925;-52
2022/11/30 02:19:53;;;;;;;;;;;11.40;72.80;;;;;;5021129;28;19925;-53
2022/11/30 02:22:28;;;;;;;;;;;11.40;72.90;;;;;;5025656;28;19930;-50
2022/11/30 02:25:18;;;;;;;;;;;11.30;72.90;;;;;;5014172;28;19925;-55
2022/11/30 02:27:51;;;;;;;;;;;11.30;72.90;;;;;;5007826;28;19925;-54
2022/11/30 02:30:18;;;;;;;;;;;11.30;73.00;;;;;;5016082;28;20024;-53
2022/11/30 02:32:55;;;;;;;;;;;11.40;73.10;;;;;;5024980;28;19932;-51
2022/11/30 02:35:26;;;;;;;;;;;11.30;73.00;;;;;;5019757;28;20363;-52
2022/11/30 02:38:03;;;;;;;;;;;11.30;73.00;;;;;;5019817;28;19952;-55
2022/11/30 02:40:39;;;;;;;;;;;11.30;73.00;;;;;;5031048;28;19936;-55
2022/11/30 02:43:08;;;;;;;;;;;11.30;73.00;;;;;;5022299;28;19925;-54
2022/11/30 02:45:40;;;;;;;;;;;11.30;73.00;;;;;;5031370;28;19960;-55
2022/11/30 02:48:08;;;;;;;;;;;11.30;72.90;;;;;;5028117;28;20023;-55
2022/11/30 02:50:49;;;;;;;;;;;11.30;72.90;;;;;;5025959;28;19929;-55
2022/11/30 02:53:19;;;;;;;;;;;11.30;73.00;;;;;;5020877;28;19925;-53
2022/11/30 02:55:53;;;;;;;;;;;11.30;73.10;;;;;;5024838;28;19983;-52
2022/11/30 02:58:23;;;;;;;;;;;11.30;73.10;;;;;;5024947;28;19926;-51
2022/11/30 03:00:49;;;;;;;;;;;11.30;73.20;;;;;;5030607;28;19951;-53
2022/11/30 03:03:16;;;;;;;;;;;11.30;73.20;;;;;;5022911;28;20505;-51
2022/11/30 03:05:42;;;;;;;;;;;11.30;73.20;;;;;;5028184;28;19926;-55
2022/11/30 03:08:09;;;;;;;;;;;11.30;73.10;;;;;;5026711;28;20385;-55
2022/11/30 03:10:40;;;;;;;;;;;11.30;73.10;;;;;;5020801;28;19941;-54
2022/11/30 03:13:07;;;;;;;;;;;11.30;73.30;;;;;;5027212;28;19929;-55
2022/11/30 03:15:35;;;;;;;;;;;11.30;73.20;;;;;;5026869;28;19944;-55
2022/11/30 03:18:04;;;;;;;;;;;11.30;73.20;;;;;;5021500;28;20305;-54
2022/11/30 03:20:31;;;;;;;;;;;11.30;73.20;;;;;;5026530;28;19935;-54
2022/11/30 03:23:01;;;;;;;;;;;11.30;73.30;;;;;;5016045;28;20429;-52
2022/11/30 03:25:28;;;;;;;;;;;11.30;73.30;;;;;;5011162;28;19933;-52
2022/11/30 03:27:54;;;;;;;;;;;11.30;73.30;;;;;;5023819;28;19933;-54
2022/11/30 03:30:21;;;;;;;;;;;11.30;73.30;;;;;;5022092;28;19933;-54
2022/11/30 03:32:50;;;;;;;;;;;11.30;73.30;;;;;;5013517;28;20418;-51
2022/11/30 03:35:17;;;;;;;;;;;11.30;73.30;;;;;;5009876;28;19969;-55
2022/11/30 03:37:44;;;;;;;;;;;11.40;73.30;;;;;;5027385;28;19940;-55
2022/11/30 03:40:17;;;;;;;;;;;11.40;73.30;;;;;;5021146;28;19983;-55
2022/11/30 03:42:44;;;;;;;;;;;11.40;73.30;;;;;;5029445;28;19932;-52
2022/11/30 03:45:12;;;;;;;;;;;11.40;73.20;;;;;;5013336;28;20023;-54
2022/11/30 03:47:41;;;;;;;;;;;11.40;73.20;;;;;;5029745;28;19942;-52
2022/11/30 03:50:10;;;;;;;;;;;11.40;73.10;;;;;;5021060;28;19948;-53
2022/11/30 03:52:38;;;;;;;;;;;11.40;73.00;;;;;;5028305;28;19953;-51
2022/11/30 03:55:07;;;;;;;;;;;11.40;73.10;;;;;;5023509;28;19940;-55
2022/11/30 03:57:35;;;;;;;;;;;11.40;73.10;;;;;;5018768;28;19981;-55
2022/11/30 04:00:05;;;;;;;;;;;11.40;73.00;;;;;;5010387;28;20012;-51
2022/11/30 04:02:37;;;;;;;;;;;11.40;72.90;;;;;;5023314;28;20025;-55
2022/11/30 04:05:12;;;;;;;;;;;11.40;72.80;;;;;;5018369;28;20356;-54
2022/11/30 04:07:41;;;;;;;;;;;11.40;72.70;;;;;;5022272;28;19925;-55
2022/11/30 04:10:10;;;;;;;;;;;11.30;72.60;;;;;;5012942;28;19934;-55
2022/11/30 04:12:39;;;;;;;;;;;11.30;72.50;;;;;;5016164;28;20020;-51
2022/11/30 04:15:06;;;;;;;;;;;11.30;72.50;;;;;;5021118;28;20020;-51
2022/11/30 04:17:34;;;;;;;;;;;11.20;72.40;;;;;;5013683;28;19964;-55
2022/11/30 04:20:01;;;;;;;;;;;11.20;72.30;;;;;;5012876;28;19925;-53
2022/11/30 04:22:30;;;;;;;;;;;11.20;72.30;;;;;;5023935;28;19936;-51
2022/11/30 04:24:56;;;;;;;;;;;11.10;72.30;;;;;;5020624;28;19926;-55
2022/11/30 04:27:25;;;;;;;;;;;11.10;72.30;;;;;;5012117;28;20353;-51
2022/11/30 04:29:52;;;;;;;;;;;11.10;72.30;;;;;;5022105;28;19929;-55
2022/11/30 04:32:21;;;;;;;;;;;11.10;72.30;;;;;;5016846;28;20015;-50
2022/11/30 04:34:47;;;;;;;;;;;11.10;72.40;;;;;;5021174;28;20020;-55
2022/11/30 04:37:14;;;;;;;;;;;11.00;72.30;;;;;;5027673;28;19925;-53
2022/11/30 04:39:43;;;;;;;;;;;11.00;72.30;;;;;;5030185;28;19932;-53
2022/11/30 04:42:14;;;;;;;;;;;11.00;72.40;;;;;;5022436;28;19929;-50
2022/11/30 04:44:41;;;;;;;;;;;11.00;72.40;;;;;;5001781;28;19926;-55
2022/11/30 04:47:08;;;;;;;;;;;11.00;72.40;;;;;;5012674;28;19938;-55
2022/11/30 04:49:34;;;;;;;;;;;11.00;72.50;;;;;;5033707;28;19948;-53
2022/11/30 04:52:06;;;;;;;;;;;11.00;72.50;;;;;;5026619;28;19925;-52
2022/11/30 04:54:33;;;;;;;;;;;11.00;72.50;;;;;;5020017;28;19947;-55
2022/11/30 04:57:02;;;;;;;;;;;11.00;72.60;;;;;;5013408;28;19971;-51
2022/11/30 04:59:28;;;;;;;;;;;11.00;72.60;;;;;;5014377;28;19932;-55
2022/11/30 05:01:58;;;;;;;;;;;11.00;72.70;;;;;;5029844;28;19956;-53
2022/11/30 05:04:24;;;;;;;;;;;11.00;72.60;;;;;;5024522;28;19933;-51
2022/11/30 05:06:54;;;;;;;;;;;11.00;72.60;;;;;;5026752;28;19932;-52
2022/11/30 05:09:20;;;;;;;;;;;11.00;72.60;;;;;;5031551;28;19925;-55
2022/11/30 05:11:47;;;;;;;;;;;11.00;72.60;;;;;;5026483;28;19925;-54
2022/11/30 05:14:14;;;;;;;;;;;11.00;72.60;;;;;;5030614;28;19935;-55
2022/11/30 05:16:48;;;;;;;;;;;11.10;72.60;;;;;;5027229;28;19932;-53
2022/11/30 05:19:14;;;;;;;;;;;11.10;72.60;;;;;;5018426;28;19925;-55
2022/11/30 05:21:41;;;;;;;;;;;11.00;72.60;;;;;;5025610;28;19961;-53
2022/11/30 05:24:11;;;;;;;;;;;11.00;72.50;;;;;;5021719;28;19933;-52
2022/11/30 05:26:40;;;;;;;;;;;11.00;72.60;;;;;;5013080;28;19937;-52
2022/11/30 05:29:09;;;;;;;;;;;11.00;72.50;;;;;;5020058;28;19972;-55
2022/11/30 05:31:40;;;;;;;;;;;11.00;72.50;;;;;;5024346;28;19925;-55
2022/11/30 05:34:07;;;;;;;;;;;11.00;72.50;;;;;;5029037;28;19971;-52
2022/11/30 05:36:34;;;;;;;;;;;11.00;72.60;;;;;;5030681;28;20468;-53
2022/11/30 05:39:01;;;;;;;;;;;11.00;72.60;;;;;;5020966;28;19925;-51
2022/11/30 05:41:27;;;;;;;;;;;11.00;72.60;;;;;;5024117;28;19931;-55
2022/11/30 05:43:56;;;;;;;;;;;11.00;72.60;;;;;;5031837;28;19925;-55
2022/11/30 05:46:24;;;;;;;;;;;11.00;72.70;;;;;;5030548;28;19936;-55
2022/11/30 05:48:52;;;;;;;;;;;11.00;72.70;;;;;;5027853;28;19925;-52
2022/11/30 05:51:19;;;;;;;;;;;11.00;72.70;;;;;;5023694;28;20309;-55
2022/11/30 05:53:48;;;;;;;;;;;11.00;72.80;;;;;;5031415;28;20032;-53
2022/11/30 05:56:17;;;;;;;;;;;11.00;72.80;;;;;;5020746;28;19936;-55
2022/11/30 05:58:44;;;;;;;;;;;11.10;72.80;;;;;;5030234;28;19939;-55
2022/11/30 06:01:20;;;;;;;;;;;11.10;72.80;;;;;;5023730;28;19975;-52
2022/11/30 06:03:47;;;;;;;;;;;11.10;72.80;;;;;;5032191;28;19931;-52
2022/11/30 06:06:14;;;;;;;;;;;11.10;72.80;;;;;;5025082;28;19926;-55
2022/11/30 06:08:41;;;;;;;;;;;11.10;72.80;;;;;;5030546;28;19925;-51
2022/11/30 06:11:11;;;;;;;;;;;11.10;72.70;;;;;;5023585;28;19953;-57
2022/11/30 06:13:38;;;;;;;;;;;11.10;72.70;;;;;;5013837;28;19952;-56
2022/11/30 06:16:05;;;;;;;;;;;11.10;72.60;;;;;;5026637;28;19936;-53
2022/11/30 06:18:33;;;;;;;;;;;11.10;72.40;;;;;;5018271;28;19952;-53
2022/11/30 06:21:02;;;;;;;;;;;11.10;72.30;;;;;;5014943;28;20416;-52
2022/11/30 06:23:30;;;;;;;;;;;11.10;72.00;;;;;;5019794;28;19932;-55
2022/11/30 06:26:05;;;;;;;;;;;11.00;71.80;;;;;;5021919;28;19936;-51
2022/11/30 06:28:34;;;;;;;;;;;10.90;71.50;;;;;;5016523;28;20302;-55
2022/11/30 06:31:03;;;;;;;;;;;10.90;71.30;;;;;;5031457;28;19925;-57
2022/11/30 06:33:30;;;;;;;;;;;10.80;71.10;;;;;;5021882;28;19935;-54
2022/11/30 06:36:00;;;;;;;;;;;10.70;70.90;;;;;;5024319;28;19929;-53
2022/11/30 06:38:29;;;;;;;;;;;10.60;70.80;;;;;;5014297;28;19933;-54
2022/11/30 06:41:06;;;;;;;;;;;10.50;70.60;;;;;;5023843;28;20290;-52
2022/11/30 06:43:33;;;;;;;;;;;10.50;70.60;;;;;;5002709;28;20357;-54
2022/11/30 06:46:00;;;;;;;;;;;10.30;70.50;;;;;;5012541;28;19930;-55
2022/11/30 06:48:27;;;;;;;;;;;10.20;70.40;;;;;;5017508;28;19933;-55
2022/11/30 06:50:53;;;;;;;;;;;10.20;70.40;;;;;;5014097;28;19929;-53
2022/11/30 06:53:20;;;;;;;;;;;10.00;70.40;;;;;;5018914;28;19937;-54
2022/11/30 06:55:47;;;;;;;;;;;10.00;70.40;;;;;;5017674;28;20433;-52
2022/11/30 06:58:13;;;;;;;;;;;9.90;70.40;;;;;;5011951;28;19965;-55
2022/11/30 07:00:41;;;;;;;;;;;9.80;70.40;;;;;;5025027;28;19930;-56
2022/11/30 07:03:08;;;;;;;;;;;9.70;70.40;;;;;;5012361;28;20011;-55
2022/11/30 07:05:42;;;;;;;;;;;9.60;70.50;;;;;;5006577;28;19930;-55
2022/11/30 07:08:13;;;;;;;;;;;9.50;70.50;;;;;;5021854;28;19952;-53
2022/11/30 07:10:43;;;;;;;;;;;9.50;70.60;;;;;;5014109;28;19932;-53
2022/11/30 07:13:11;;;;;;;;;;;9.40;70.60;;;;;;5022767;28;19965;-55
2022/11/30 07:15:38;;;;;;;;;;;9.30;70.50;;;;;;5014675;28;19929;-57
2022/11/30 07:18:09;;;;;;;;;;;9.20;70.50;;;;;;5009525;28;20016;-53
2022/11/30 07:20:37;;;;;;;;;;;9.20;70.60;;;;;;5019983;28;20016;-56
2022/11/30 07:26:08;;;;;;;;;;;9.00;70.60;;;;;;5014074;28;20340;-54
2022/11/30 07:28:36;;;;;;;;;;;9.00;70.60;;;;;;5022947;28;19972;-57
2022/11/30 07:31:34;;;;;;;;;;;8.90;70.70;;;;;;5016564;28;19933;-56
2022/11/30 07:34:04;;;;;;;;;;;8.80;70.70;;;;;;4993715;28;20019;-51
2022/11/30 07:36:31;;;;;;;;;;;8.80;70.70;;;;;;4999948;28;19925;-51
2022/11/30 07:38:58;;;;;;;;;;;8.70;70.70;;;;;;5021798;28;20497;-53
2022/11/30 07:41:25;;;;;;;;;;;8.70;70.70;;;;;;5018531;28;19925;-51
2022/11/30 07:43:51;;;;;;;;;;;8.60;70.80;;;;;;5009980;28;19929;-57
2022/11/30 07:46:18;;;;;;;;;;;8.60;71.00;;;;;;5012930;28;19930;-54
2022/11/30 07:48:45;;;;;;;;;;;8.60;71.30;;;;;;5017839;28;19975;-54
2022/11/30 07:51:13;;;;;;;;;;;8.60;71.60;;;;;;5014813;28;20366;-57
2022/11/30 07:53:40;;;;;;;;;;;8.60;71.90;;;;;;5021856;28;20012;-55
2022/11/30 07:56:09;;;;;;;;;;;8.60;72.20;;;;;;5010434;28;19930;-56
2022/11/30 07:58:36;;;;;;;;;;;8.70;72.60;;;;;;5014425;28;20282;-55
2022/11/30 08:01:03;;;;;;;;;;;8.70;72.70;;;;;;5029776;28;19948;-57
2022/11/30 08:03:31;;;;;;;;;;;8.80;72.90;;;;;;5021639;28;19931;-53
2022/11/30 08:06:07;;;;;;;;;;;8.80;73.10;;;;;;5029954;28;19925;-51
2022/11/30 08:08:36;;;;;;;;;;;8.90;73.20;;;;;;5024671;28;20300;-53
2022/11/30 08:11:03;;;;;;;;;;;9.00;73.30;;;;;;5022874;28;20513;-56
2022/11/30 08:13:30;;;;;;;;;;;9.10;73.30;;;;;;5024842;28;20007;-54
2022/11/30 08:16:01;;;;;;;;;;;9.10;73.90;;;;;;5014579;28;20415;-55
2022/11/30 08:18:28;;;;;;;;;;;9.10;73.30;;;;;;5017864;28;20033;-55
2022/11/30 08:20:55;;;;;;;;;;;9.20;73.30;;;;;;5021115;28;19931;-55
2022/11/30 08:23:22;;;;;;;;;;;9.20;73.20;;;;;;5018015;28;19944;-54
2022/11/30 08:25:50;;;;;;;;;;;9.20;73.10;;;;;;5024612;28;20301;-52
2022/11/30 08:28:16;;;;;;;;;;;9.20;73.00;;;;;;5023442;28;20317;-56
2022/11/30 08:30:43;;;;;;;;;;;9.30;73.00;;;;;;5016291;28;19929;-51
2022/11/30 08:33:10;;;;;;;;;;;9.30;73.10;;;;;;5003513;28;20369;-56
2022/11/30 08:35:36;;;;;;;;;;;9.30;73.00;;;;;;5026092;28;19929;-54
2022/11/30 08:38:03;;;;;;;;;;;9.30;73.00;;;;;;5023301;28;20390;-54
2022/11/30 08:40:30;;;;;;;;;;;9.30;73.00;;;;;;5013083;28;19935;-57
2022/11/30 08:42:57;;;;;;;;;;;9.30;72.90;;;;;;5021583;28;19929;-56
2022/11/30 08:45:24;;;;;;;;;;;9.30;72.90;;;;;;5025331;28;19925;-55
2022/11/30 08:47:52;;;;;;;;;;;9.30;72.90;;;;;;5025265;28;19930;-52
2022/11/30 08:50:19;;;;;;;;;;;9.30;72.80;;;;;;5003121;28;19929;-54
2022/11/30 08:52:45;;;;;;;;;;;9.40;72.90;;;;;;5011852;28;20029;-53
2022/11/30 08:55:12;;;;;;;;;;;9.40;72.90;;;;;;5017811;28;19926;-51
2022/11/30 08:57:39;;;;;;;;;;;9.40;72.80;;;;;;5024726;28;19926;-54
2022/11/30 09:00:06;;;;;;;;;;;9.40;72.80;;;;;;5024479;28;20016;-56
2022/11/30 09:02:32;;;;;;;;;;;9.40;72.80;;;;;;5017614;28;20341;-55
2022/11/30 09:04:59;;;;;;;;;;;9.40;72.90;;;;;;5019521;28;19930;-55
2022/11/30 09:07:28;;;;;;;;;;;9.40;72.80;;;;;;5023656;28;20597;-55
2022/11/30 09:09:55;;;;;;;;;;;9.40;72.80;;;;;;5026901;28;19925;-56
2022/11/30 09:12:21;;;;;;;;;;;9.40;72.80;;;;;;5024072;28;19929;-54
2022/11/30 09:14:48;;;;;;;;;;;9.40;72.80;;;;;;5027039;28;19931;-55
2022/11/30 09:17:23;;;;;;;;;;;9.40;72.70;;;;;;5011529;28;19961;-56
2022/11/30 09:19:49;;;;;;;;;;;9.40;72.70;;;;;;5015741;28;19933;-51
2022/11/30 09:22:17;;;;;;;;;;;9.40;72.60;;;;;;5002622;28;19948;-51
2022/11/30 09:24:43;;;;;;;;;;;9.40;72.60;;;;;;5023167;28;19932;-55
2022/11/30 09:27:11;;;;;;;;;;;9.40;72.70;;;;;;5023824;28;19932;-54
2022/11/30 09:29:37;;;;;;;;;;;9.40;72.80;;;;;;5029861;28;19925;-51
2022/11/30 09:32:04;;;;;;;;;;;9.40;72.90;;;;;;5027270;28;19994;-55
2022/11/30 09:34:31;;;;;;;;;;;9.50;73.00;;;;;;5022270;28;19940;-53
2022/11/30 09:36:57;;;;;;;;;;;9.50;73.10;;;;;;5030243;28;20323;-54
2022/11/30 09:39:24;;;;;;;;;;;9.50;73.10;;;;;;5020152;28;20401;-52
2022/11/30 09:41:52;;;;;;;;;;;9.60;73.30;;;;;;5016470;28;20020;-53
2022/11/30 09:44:19;;;;;;;;;;;9.60;73.30;;;;;;5011633;28;20312;-51
2022/11/30 09:46:45;;;;;;;;;;;9.70;73.40;;;;;;5025348;28;19932;-54
2022/11/30 09:49:12;;;;;;;;;;;9.70;73.40;;;;;;5020623;28;20384;-56
2022/11/30 09:51:45;;;;;;;;;;;9.80;73.40;;;;;;5017945;28;19926;-54
2022/11/30 09:54:14;;;;;;;;;;;9.80;73.30;;;;;;5021930;28;20466;-52
2022/11/30 09:56:41;;;;;;;;;;;9.90;73.40;;;;;;5019996;28;19926;-57
2022/11/30 09:59:19;;;;;;;;;;;10.00;73.30;;;;;;5011335;28;20319;-56
2022/11/30 10:01:47;;;;;;;;;;;10.00;73.30;;;;;;5026327;28;20320;-55
2022/11/30 10:04:23;;;;;;;;;;;10.00;73.20;;;;;;5018740;28;19932;-52
2022/11/30 10:07:01;;;;;;;;;;;10.10;73.20;;;;;;5011991;28;19929;-54
2022/11/30 10:09:47;;;;;;;;;;;10.10;73.20;;;;;;5024774;28;19936;-55
2022/11/30 10:12:37;;;;;;;;;;;10.20;73.20;;;;;;5023591;28;19933;-53
2022/11/30 10:15:12;;;;;;;;;;;10.20;73.10;;;;;;5020783;28;19957;-55
2022/11/30 10:17:42;;;;;;;;;;;10.30;73.20;;;;;;5025782;28;19953;-51
2022/11/30 10:20:21;;;;;;;;;;;10.30;73.20;;;;;;5024365;28;19971;-53
2022/11/30 10:23:08;;;;;;;;;;;10.40;73.20;;;;;;5023959;28;19925;-56
2022/11/30 10:25:34;;;;;;;;;;;10.40;73.20;;;;;;5030831;28;19936;-55
2022/11/30 10:28:04;;;;;;;;;;;10.50;73.30;;;;;;5021157;28;19926;-54
2022/11/30 10:30:50;;;;;;;;;;;10.50;73.20;;;;;;5005170;28;19929;-56
2022/11/30 10:33:18;;;;;;;;;;;10.60;73.20;;;;;;5020239;28;19925;-58
2022/11/30 10:35:48;;;;;;;;;;;10.60;73.20;;;;;;5023118;28;19932;-56
2022/11/30 10:38:23;;;;;;;;;;;10.70;73.20;;;;;;5025784;28;19976;-55
2022/11/30 10:41:22;;;;;;;;;;;10.70;73.10;;;;;;5020901;28;19933;-55
2022/11/30 10:43:57;;;;;;;;;;;10.80;73.20;;;;;;5011088;28;20020;-53
2022/11/30 10:46:26;;;;;;;;;;;10.80;73.10;;;;;;5025448;28;19940;-52
2022/11/30 10:48:56;;;;;;;;;;;10.90;73.00;;;;;;5017790;28;20388;-57
2022/11/30 10:51:24;;;;;;;;;;;10.90;72.80;;;;;;5021811;28;20002;-51
2022/11/30 10:53:50;;;;;;;;;;;11.00;72.90;;;;;;5025652;28;19952;-56
2022/11/30 10:56:17;;;;;;;;;;;11.00;72.90;;;;;;5019737;28;19925;-53
2022/11/30 10:58:52;;;;;;;;;;;11.10;73.00;;;;;;5018269;28;20677;-56
2022/11/30 11:01:30;;;;;;;;;;;11.10;72.70;;;;;;5017902;28;20386;-51
2022/11/30 11:04:07;;;;;;;;;;;11.20;72.60;;;;;;5016403;28;19932;-55
2022/11/30 11:06:34;;;;;;;;;;;11.20;72.50;;;;;;5024720;28;19936;-54
2022/11/30 11:09:19;;;;;;;;;;;11.20;72.50;;;;;;5018950;28;19991;-54
2022/11/30 11:11:52;;;;;;;;;;;11.20;72.50;;;;;;5011024;28;19972;-54
2022/11/30 11:14:20;;;;;;;;;;;11.20;72.50;;;;;;5013121;28;19925;-54
2022/11/30 11:16:48;;;;;;;;;;;11.20;72.60;;;;;;5025579;28;19925;-51
2022/11/30 11:19:23;;;;;;;;;;;11.30;73.30;;;;;;5022658;28;20305;-53
2022/11/30 11:21:50;;;;;;;;;;;11.30;72.70;;;;;;5029540;28;20500;-53
2022/11/30 11:24:18;;;;;;;;;;;11.40;72.70;;;;;;5012872;28;19926;-57
2022/11/30 11:26:49;;;;;;;;;;;11.40;72.60;;;;;;5030028;28;19984;-54
2022/11/30 11:29:30;;;;;;;;;;;11.40;72.60;;;;;;5022436;28;19929;-52
2022/11/30 11:32:15;;;;;;;;;;;11.50;72.60;;;;;;5024865;28;19943;-55
2022/11/30 11:34:42;;;;;;;;;;;11.50;72.50;;;;;;5019542;28;19935;-54
2022/11/30 11:37:21;;;;;;;;;;;11.50;72.50;;;;;;5017105;28;19968;-55
2022/11/30 11:40:22;;;;;;;;;;;11.50;72.40;;;;;;5009505;28;20389;-52
2022/11/30 11:42:50;;;;;;;;;;;11.60;72.40;;;;;;4999385;28;20417;-51
2022/11/30 11:45:20;;;;;;;;;;;11.60;72.20;;;;;;5022520;28;19929;-53
2022/11/30 11:47:56;;;;;;;;;;;11.60;72.20;;;;;;5022542;28;19930;-55
2022/11/30 11:50:33;;;;;;;;;;;11.60;72.10;;;;;;5021048;28;19925;-56
2022/11/30 11:53:23;;;;;;;;;;;11.60;72.00;;;;;;5025214;28;19929;-53
2022/11/30 11:55:52;;;;;;;;;;;11.60;71.90;;;;;;5020881;28;19952;-54
2022/11/30 11:58:26;;;;;;;;;;;11.60;71.90;;;;;;4997277;28;19932;-56
2022/11/30 12:00:53;;;;;;;;;;;11.60;71.90;;;;;;5019478;28;19925;-55
2022/11/30 12:03:43;;;;;;;;;;;11.60;71.90;;;;;;5019708;28;19955;-57
2022/11/30 12:06:14;;;;;;;;;;;11.60;71.90;;;;;;5025496;28;19935;-55
2022/11/30 12:08:46;;;;;;;;;;;11.60;71.80;;;;;;5028414;28;19960;-55
2022/11/30 12:11:16;;;;;;;;;;;11.60;71.90;;;;;;5026511;28;19987;-55
2022/11/30 12:13:43;;;;;;;;;;;11.60;71.80;;;;;;5031771;28;19935;-55
2022/11/30 12:16:10;;;;;;;;;;;11.60;71.90;;;;;;5019573;28;19951;-54
2022/11/30 12:18:44;;;;;;;;;;;11.60;71.90;;;;;;5002754;28;19930;-55
2022/11/30 12:21:13;;;;;;;;;;;11.70;71.80;;;;;;5022459;28;19936;-52
2022/11/30 12:23:58;;;;;;;;;;;11.70;71.60;;;;;;5027262;28;20416;-55
2022/11/30 12:26:46;;;;;;;;;;;11.70;71.60;;;;;;5018241;28;19964;-54
2022/11/30 12:29:31;;;;;;;;;;;11.70;71.70;;;;;;5022481;28;19957;-53
2022/11/30 12:32:15;;;;;;;;;;;11.70;71.80;;;;;;5025936;28;19936;-55
2022/11/30 12:34:42;;;;;;;;;;;11.70;71.70;;;;;;5024282;28;19925;-52
2022/11/30 12:37:21;;;;;;;;;;;11.70;71.50;;;;;;5021782;28;19929;-54
2022/11/30 12:39:48;;;;;;;;;;;11.70;71.40;;;;;;5018686;28;20404;-53
2022/11/30 12:42:30;;;;;;;;;;;11.80;71.50;;;;;;5024648;28;20019;-52
2022/11/30 12:44:59;;;;;;;;;;;11.80;71.60;;;;;;5017230;28;20646;-55
2022/11/30 12:47:26;;;;;;;;;;;11.80;71.60;;;;;;5023799;28;19932;-55
2022/11/30 12:50:11;;;;;;;;;;;11.80;71.50;;;;;;5024743;28;20436;-55
2022/11/30 12:52:57;;;;;;;;;;;11.80;71.40;;;;;;5027539;28;20020;-55
2022/11/30 12:55:31;;;;;;;;;;;11.80;71.50;;;;;;4998164;28;19925;-54
2022/11/30 12:58:03;;;;;;;;;;;11.90;71.50;;;;;;5012673;28;19933;-52
2022/11/30 13:00:35;;;;;;;;;;;11.90;71.40;;;;;;5016101;28;19929;-52
2022/11/30 13:03:14;;;;;;;;;;;11.90;71.30;;;;;;5015811;28;19932;-54
2022/11/30 13:05:42;;;;;;;;;;;11.90;71.20;;;;;;5023590;28;20320;-52
2022/11/30 13:08:15;;;;;;;;;;;11.90;71.00;;;;;;5008885;28;19925;-52
2022/11/30 13:10:45;;;;;;;;;;;11.90;71.00;;;;;;5015553;28;20020;-53
2022/11/30 13:13:19;;;;;;;;;;;11.90;71.00;;;;;;5016546;28;19929;-54
2022/11/30 13:15:47;;;;;;;;;;;11.90;71.10;;;;;;5014567;28;19996;-53
2022/11/30 13:18:16;;;;;;;;;;;11.90;71.00;;;;;;5030097;28;19952;-55
2022/11/30 13:20:54;;;;;;;;;;;11.90;71.10;;;;;;5022643;28;20020;-53
2022/11/30 13:23:32;;;;;;;;;;;11.90;71.10;;;;;;5023515;28;19929;-54
2022/11/30 13:26:06;;;;;;;;;;;11.90;71.00;;;;;;5024928;28;20380;-54
2022/11/30 13:28:40;;;;;;;;;;;11.90;70.90;;;;;;5032153;28;19932;-56
2022/11/30 13:31:20;;;;;;;;;;;11.90;70.90;;;;;;5024785;28;19925;-55
2022/11/30 13:33:48;;;;;;;;;;;11.90;70.80;;;;;;5028943;28;20437;-53
2022/11/30 13:36:26;;;;;;;;;;;11.80;70.80;;;;;;5025057;28;19931;-53
2022/11/30 13:39:11;;;;;;;;;;;11.90;70.80;;;;;;5021459;28;19932;-56
2022/11/30 13:41:38;;;;;;;;;;;11.80;70.80;;;;;;5014754;28;19925;-55
2022/11/30 13:44:19;;;;;;;;;;;11.80;70.90;;;;;;5009923;28;19925;-55
2022/11/30 13:46:49;;;;;;;;;;;11.80;70.90;;;;;;5028745;28;20032;-51
2022/11/30 13:49:19;;;;;;;;;;;11.80;70.90;;;;;;5018087;28;19925;-53
2022/11/30 13:51:45;;;;;;;;;;;11.80;70.90;;;;;;4996766;28;20040;-55
2022/11/30 13:54:36;;;;;;;;;;;11.80;70.80;;;;;;5020154;28;19925;-51
2022/11/30 13:57:14;;;;;;;;;;;11.80;70.80;;;;;;5001676;28;20535;-55
2022/11/30 13:59:43;;;;;;;;;;;11.80;70.60;;;;;;5031815;28;19925;-53
2022/11/30 14:02:45;;;;;;;;;;;11.80;70.80;;;;;;5023556;28;20008;-52
2022/11/30 14:05:18;;;;;;;;;;;11.80;70.60;;;;;;4984408;28;20030;-56
2022/11/30 14:07:46;;;;;;;;;;;11.80;70.60;;;;;;5013461;28;20024;-55
2022/11/30 14:10:28;;;;;;;;;;;11.80;70.60;;;;;;5026642;28;20393;-54
2022/11/30 14:13:02;;;;;;;;;;;11.80;70.60;;;;;;5013862;28;19987;-55
2022/11/30 14:15:37;;;;;;;;;;;11.80;70.90;;;;;;5022904;28;19933;-55
2022/11/30 14:18:06;;;;;;;;;;;11.80;71.00;;;;;;5011690;28;19925;-55
2022/11/30 14:20:42;;;;;;;;;;;11.90;71.10;;;;;;5021863;28;20389;-55
2022/11/30 14:23:13;;;;;;;;;;;11.90;71.00;;;;;;5027135;28;19936;-55
2022/11/30 14:25:45;;;;;;;;;;;11.90;70.90;;;;;;5026484;28;19973;-54
2022/11/30 14:28:17;;;;;;;;;;;12.00;71.10;;;;;;5015636;28;20278;-54
2022/11/30 14:30:44;;;;;;;;;;;12.00;70.90;;;;;;5012536;28;19929;-55
2022/11/30 14:33:30;;;;;;;;;;;12.10;70.90;;;;;;5029581;28;20011;-55
2022/11/30 14:35:58;;;;;;;;;;;12.10;70.50;;;;;;5016827;28;19925;-55
2022/11/30 14:38:26;;;;;;;;;;;12.10;70.40;;;;;;5017525;28;20329;-55
2022/11/30 14:40:53;;;;;;;;;;;12.10;70.20;;;;;;5019323;28;20333;-54